Enter the Airport ICAO Code

Search by Airport or City

Current Weather

SCQP | La Araucanía Airport

Temuco, Chile

Last Update 45 Minutes Ago

Completely Cloudy Sky

Temperature of 06 ºC

Light Winds from SouthEast

Temperature

06 ºC

Dew Point Temperature

06 ºC

Relative Humidity

100 %

Wind Direction

SouthEast (150º, Without Significant Variations)

Wind Velocity

4 km/h (02 kt)

Gusts

None

Visibility

Greater than 10 Kilometers

Sea Level Pressure

1023 hPa (Hectopascals)

Layers of Clouds

90% to 100% of Sky Covered from 1311 mts (4300 ft) Above Ground Level.

METAR SCQP 191200Z 15002KT 9999 OVC043 06/06 Q1023

Weather Forecast

SCQP | La Araucanía Airport

Temuco, Chile

Forecast valid for the next 23 Hours

From now on it is expected:

Mostly Cloudy Sky

Light Winds from Variable Directions

In 6 to 8 hours it is expected the begining of:

Clear Sky

Light to Moderate Winds from South

In 13 to 15 hours it is expected the begining of:

Mist

Light Winds from Variable Directions

In 19 hours it is expected the begining of 4 hours with intermittent periods of:

Fog

Maximum Temperature

12 ºC in 6 Hours

Minimum Temperature

06 ºC in -1 Hours

TAF SCQP 191037Z 1912/2012 VRB03KT 9999 BKN020 BKN040 TN06/1912Z TX12/1919Z BECMG 1919/1921 18005KT CAVOK BECMG 2002/2004 VRB03KT 3000 BR SCT008 SCT035 TEMPO 2008/2012 0500 FG OVC003